sensor_id;sensor_type;location;lat;lon;timestamp;temperature;humidity
74511;DHT22;62991;50.040;18.400;2022-12-05T00:00:53;7.00;61.40
74511;DHT22;62991;50.040;18.400;2022-12-05T00:03:56;7.00;61.30
74511;DHT22;62991;50.040;18.400;2022-12-05T00:06:57;7.00;61.40
74511;DHT22;62991;50.040;18.400;2022-12-05T00:09:58;7.00;61.30
74511;DHT22;62991;50.040;18.400;2022-12-05T00:12:59;7.10;61.30
74511;DHT22;62991;50.040;18.400;2022-12-05T00:15:59;7.10;61.20
74511;DHT22;62991;50.040;18.400;2022-12-05T00:19:01;7.10;61.20
74511;DHT22;62991;50.040;18.400;2022-12-05T00:22:02;7.10;61.20
74511;DHT22;62991;50.040;18.400;2022-12-05T00:25:05;7.00;61.20
74511;DHT22;62991;50.040;18.400;2022-12-05T00:28:05;7.00;61.20
74511;DHT22;62991;50.040;18.400;2022-12-05T00:31:09;7.00;61.30
74511;DHT22;62991;50.040;18.400;2022-12-05T00:34:10;7.00;61.20
74511;DHT22;62991;50.040;18.400;2022-12-05T00:37:11;7.00;61.30
74511;DHT22;62991;50.040;18.400;2022-12-05T00:40:12;7.00;61.30
74511;DHT22;62991;50.040;18.400;2022-12-05T00:43:12;7.00;61.30
74511;DHT22;62991;50.040;18.400;2022-12-05T00:46:15;7.00;61.30
74511;DHT22;62991;50.040;18.400;2022-12-05T00:49:16;7.00;61.30
74511;DHT22;62991;50.040;18.400;2022-12-05T00:52:17;7.00;61.30
74511;DHT22;62991;50.040;18.400;2022-12-05T00:55:18;7.00;61.30
74511;DHT22;62991;50.040;18.400;2022-12-05T00:58:18;7.00;61.40
74511;DHT22;62991;50.040;18.400;2022-12-05T01:01:26;7.00;61.40
74511;DHT22;62991;50.040;18.400;2022-12-05T01:04:27;7.00;61.30
74511;DHT22;62991;50.040;18.400;2022-12-05T01:07:28;6.90;61.30
74511;DHT22;62991;50.040;18.400;2022-12-05T01:10:29;6.90;61.30
74511;DHT22;62991;50.040;18.400;2022-12-05T01:13:30;6.90;61.30
74511;DHT22;62991;50.040;18.400;2022-12-05T01:16:35;7.00;61.30
74511;DHT22;62991;50.040;18.400;2022-12-05T01:19:36;7.00;61.30
74511;DHT22;62991;50.040;18.400;2022-12-05T01:22:37;7.00;61.20
74511;DHT22;62991;50.040;18.400;2022-12-05T01:25:42;7.00;61.20
74511;DHT22;62991;50.040;18.400;2022-12-05T01:28:43;7.00;61.10
74511;DHT22;62991;50.040;18.400;2022-12-05T01:31:44;7.00;61.10
74511;DHT22;62991;50.040;18.400;2022-12-05T01:34:45;7.00;61.10
74511;DHT22;62991;50.040;18.400;2022-12-05T01:37:46;7.00;61.10
74511;DHT22;62991;50.040;18.400;2022-12-05T01:40:46;7.00;61.20
74511;DHT22;62991;50.040;18.400;2022-12-05T01:44:06;6.90;61.20
74511;DHT22;62991;50.040;18.400;2022-12-05T01:47:07;6.90;61.30
74511;DHT22;62991;50.040;18.400;2022-12-05T01:50:08;6.90;61.30
74511;DHT22;62991;50.040;18.400;2022-12-05T01:53:09;6.90;61.30
74511;DHT22;62991;50.040;18.400;2022-12-05T01:56:11;6.90;61.30
74511;DHT22;62991;50.040;18.400;2022-12-05T01:59:12;6.80;61.30
74511;DHT22;62991;50.040;18.400;2022-12-05T02:02:13;6.80;61.30
74511;DHT22;62991;50.040;18.400;2022-12-05T02:05:17;6.80;61.30
74511;DHT22;62991;50.040;18.400;2022-12-05T02:08:20;6.80;61.30
74511;DHT22;62991;50.040;18.400;2022-12-05T02:11:22;6.80;61.30
74511;DHT22;62991;50.040;18.400;2022-12-05T02:14:44;6.70;61.40
74511;DHT22;62991;50.040;18.400;2022-12-05T02:31:34;6.70;61.40
74511;DHT22;62991;50.040;18.400;2022-12-05T02:37:46;6.70;61.40
74511;DHT22;62991;50.040;18.400;2022-12-05T02:40:50;6.70;61.30
74511;DHT22;62991;50.040;18.400;2022-12-05T02:44:19;6.70;61.30
74511;DHT22;62991;50.040;18.400;2022-12-05T02:47:25;6.70;61.40
74511;DHT22;62991;50.040;18.400;2022-12-05T02:50:31;6.80;61.40
74511;DHT22;62991;50.040;18.400;2022-12-05T02:53:35;6.80;61.40
74511;DHT22;62991;50.040;18.400;2022-12-05T02:56:37;6.80;61.40
74511;DHT22;62991;50.040;18.400;2022-12-05T02:59:38;6.80;61.30
74511;DHT22;62991;50.040;18.400;2022-12-05T03:02:39;6.80;61.30
74511;DHT22;62991;50.040;18.400;2022-12-05T03:05:50;6.80;61.30
74511;DHT22;62991;50.040;18.400;2022-12-05T03:09:01;6.70;61.40
74511;DHT22;62991;50.040;18.400;2022-12-05T03:12:22;6.70;61.40
74511;DHT22;62991;50.040;18.400;2022-12-05T03:15:34;6.70;61.50
74511;DHT22;62991;50.040;18.400;2022-12-05T03:18:56;6.80;61.40
74511;DHT22;62991;50.040;18.400;2022-12-05T03:22:02;6.80;61.40
74511;DHT22;62991;50.040;18.400;2022-12-05T03:25:06;6.90;61.30
74511;DHT22;62991;50.040;18.400;2022-12-05T03:28:53;6.90;61.30
74511;DHT22;62991;50.040;18.400;2022-12-05T03:42:12;7.00;61.20
74511;DHT22;62991;50.040;18.400;2022-12-05T03:45:18;7.00;61.20
74511;DHT22;62991;50.040;18.400;2022-12-05T03:48:22;7.00;61.10
74511;DHT22;62991;50.040;18.400;2022-12-05T03:51:36;7.00;61.10
74511;DHT22;62991;50.040;18.400;2022-12-05T03:54:43;7.00;61.10
74511;DHT22;62991;50.040;18.400;2022-12-05T03:57:54;7.00;61.10
74511;DHT22;62991;50.040;18.400;2022-12-05T04:00:58;6.90;61.10
74511;DHT22;62991;50.040;18.400;2022-12-05T04:04:05;6.90;61.10
74511;DHT22;62991;50.040;18.400;2022-12-05T04:07:08;6.90;61.10
74511;DHT22;62991;50.040;18.400;2022-12-05T04:10:13;6.90;61.20
74511;DHT22;62991;50.040;18.400;2022-12-05T04:19:46;6.90;61.10
74511;DHT22;62991;50.040;18.400;2022-12-05T04:23:08;6.90;61.10
74511;DHT22;62991;50.040;18.400;2022-12-05T04:26:20;6.90;61.20
74511;DHT22;62991;50.040;18.400;2022-12-05T04:29:28;6.80;61.20
74511;DHT22;62991;50.040;18.400;2022-12-05T04:36:03;6.80;61.20
74511;DHT22;62991;50.040;18.400;2022-12-05T04:42:18;6.70;61.30
74511;DHT22;62991;50.040;18.400;2022-12-05T04:45:21;6.70;61.30
74511;DHT22;62991;50.040;18.400;2022-12-05T04:48:25;6.70;61.30
74511;DHT22;62991;50.040;18.400;2022-12-05T04:51:29;6.70;61.30
74511;DHT22;62991;50.040;18.400;2022-12-05T04:54:37;6.70;61.30
74511;DHT22;62991;50.040;18.400;2022-12-05T04:57:51;6.60;61.40
74511;DHT22;62991;50.040;18.400;2022-12-05T05:04:30;6.60;61.40
74511;DHT22;62991;50.040;18.400;2022-12-05T05:07:29;6.60;61.40
74511;DHT22;62991;50.040;18.400;2022-12-05T05:10:35;6.60;61.40
74511;DHT22;62991;50.040;18.400;2022-12-05T05:13:37;6.60;61.40
74511;DHT22;62991;50.040;18.400;2022-12-05T05:16:39;6.60;61.30
74511;DHT22;62991;50.040;18.400;2022-12-05T05:19:40;6.60;61.40
74511;DHT22;62991;50.040;18.400;2022-12-05T05:22:41;6.60;61.40
74511;DHT22;62991;50.040;18.400;2022-12-05T05:25:41;6.60;61.40
74511;DHT22;62991;50.040;18.400;2022-12-05T05:28:42;6.60;61.40
74511;DHT22;62991;50.040;18.400;2022-12-05T05:31:43;6.60;61.40
74511;DHT22;62991;50.040;18.400;2022-12-05T05:34:44;6.60;61.40
74511;DHT22;62991;50.040;18.400;2022-12-05T05:37:45;6.60;61.50
74511;DHT22;62991;50.040;18.400;2022-12-05T05:40:45;6.60;61.40
74511;DHT22;62991;50.040;18.400;2022-12-05T05:43:47;6.60;61.40
74511;DHT22;62991;50.040;18.400;2022-12-05T05:46:48;6.60;61.40
74511;DHT22;62991;50.040;18.400;2022-12-05T05:49:48;6.70;61.40
74511;DHT22;62991;50.040;18.400;2022-12-05T05:52:49;6.70;61.40
74511;DHT22;62991;50.040;18.400;2022-12-05T05:55:50;6.70;61.30
74511;DHT22;62991;50.040;18.400;2022-12-05T05:59:01;6.70;61.30
74511;DHT22;62991;50.040;18.400;2022-12-05T06:02:02;6.80;61.30
74511;DHT22;62991;50.040;18.400;2022-12-05T06:05:03;6.80;61.30
74511;DHT22;62991;50.040;18.400;2022-12-05T06:08:04;6.80;61.20
74511;DHT22;62991;50.040;18.400;2022-12-05T06:11:10;6.90;61.20
74511;DHT22;62991;50.040;18.400;2022-12-05T06:14:11;6.90;61.20
74511;DHT22;62991;50.040;18.400;2022-12-05T06:17:12;6.90;61.20
74511;DHT22;62991;50.040;18.400;2022-12-05T06:20:12;6.90;61.20
74511;DHT22;62991;50.040;18.400;2022-12-05T06:23:13;6.90;61.20
74511;DHT22;62991;50.040;18.400;2022-12-05T06:26:16;7.00;61.10
74511;DHT22;62991;50.040;18.400;2022-12-05T06:29:17;7.00;61.10
74511;DHT22;62991;50.040;18.400;2022-12-05T06:32:18;7.00;61.10
74511;DHT22;62991;50.040;18.400;2022-12-05T06:35:18;7.00;61.00
74511;DHT22;62991;50.040;18.400;2022-12-05T06:38:19;6.90;61.10
74511;DHT22;62991;50.040;18.400;2022-12-05T06:41:20;6.90;61.10
74511;DHT22;62991;50.040;18.400;2022-12-05T06:44:20;6.90;61.10
74511;DHT22;62991;50.040;18.400;2022-12-05T06:47:21;6.90;61.10
74511;DHT22;62991;50.040;18.400;2022-12-05T06:50:22;6.80;61.20
74511;DHT22;62991;50.040;18.400;2022-12-05T06:53:22;6.80;61.30
74511;DHT22;62991;50.040;18.400;2022-12-05T06:56:23;6.80;61.20
74511;DHT22;62991;50.040;18.400;2022-12-05T06:59:24;6.80;61.20
74511;DHT22;62991;50.040;18.400;2022-12-05T07:02:24;6.80;61.30
74511;DHT22;62991;50.040;18.400;2022-12-05T07:05:25;6.80;61.30
74511;DHT22;62991;50.040;18.400;2022-12-05T07:08:26;6.80;61.20
74511;DHT22;62991;50.040;18.400;2022-12-05T07:11:26;6.80;61.30
74511;DHT22;62991;50.040;18.400;2022-12-05T07:14:27;6.80;61.20
74511;DHT22;62991;50.040;18.400;2022-12-05T07:17:27;6.80;61.20
74511;DHT22;62991;50.040;18.400;2022-12-05T07:20:28;6.80;61.20
74511;DHT22;62991;50.040;18.400;2022-12-05T07:23:29;6.80;61.20
74511;DHT22;62991;50.040;18.400;2022-12-05T07:26:30;6.80;61.20
74511;DHT22;62991;50.040;18.400;2022-12-05T07:29:30;6.80;61.30
74511;DHT22;62991;50.040;18.400;2022-12-05T07:32:32;6.80;61.30
74511;DHT22;62991;50.040;18.400;2022-12-05T07:35:33;6.80;61.20
74511;DHT22;62991;50.040;18.400;2022-12-05T07:38:34;6.80;61.20
74511;DHT22;62991;50.040;18.400;2022-12-05T07:41:34;6.80;61.20
74511;DHT22;62991;50.040;18.400;2022-12-05T07:44:35;6.90;61.20
74511;DHT22;62991;50.040;18.400;2022-12-05T07:47:36;6.90;61.20
74511;DHT22;62991;50.040;18.400;2022-12-05T07:50:36;6.90;61.20
74511;DHT22;62991;50.040;18.400;2022-12-05T07:53:38;6.90;61.20
74511;DHT22;62991;50.040;18.400;2022-12-05T07:56:40;6.90;61.20
74511;DHT22;62991;50.040;18.400;2022-12-05T07:59:41;7.00;61.20
74511;DHT22;62991;50.040;18.400;2022-12-05T08:02:42;7.00;61.20
74511;DHT22;62991;50.040;18.400;2022-12-05T08:05:42;7.00;61.20
74511;DHT22;62991;50.040;18.400;2022-12-05T08:08:44;7.00;61.20
74511;DHT22;62991;50.040;18.400;2022-12-05T08:11:45;7.00;61.10
74511;DHT22;62991;50.040;18.400;2022-12-05T08:14:45;7.10;61.10
74511;DHT22;62991;50.040;18.400;2022-12-05T08:17:46;7.10;61.10
74511;DHT22;62991;50.040;18.400;2022-12-05T08:20:47;7.10;61.10
74511;DHT22;62991;50.040;18.400;2022-12-05T08:23:47;7.10;61.10
74511;DHT22;62991;50.040;18.400;2022-12-05T08:26:48;7.10;61.10
74511;DHT22;62991;50.040;18.400;2022-12-05T08:29:49;7.10;61.20
74511;DHT22;62991;50.040;18.400;2022-12-05T08:32:49;7.10;61.10
74511;DHT22;62991;50.040;18.400;2022-12-05T08:35:50;7.10;61.20
74511;DHT22;62991;50.040;18.400;2022-12-05T08:38:55;7.10;61.20
74511;DHT22;62991;50.040;18.400;2022-12-05T08:41:56;7.10;61.20
74511;DHT22;62991;50.040;18.400;2022-12-05T08:44:57;7.10;61.20
74511;DHT22;62991;50.040;18.400;2022-12-05T08:47:58;7.20;61.10
74511;DHT22;62991;50.040;18.400;2022-12-05T08:50:59;7.20;61.10
74511;DHT22;62991;50.040;18.400;2022-12-05T08:54:04;7.20;61.20
74511;DHT22;62991;50.040;18.400;2022-12-05T08:57:05;7.20;61.10
74511;DHT22;62991;50.040;18.400;2022-12-05T09:00:06;7.20;61.10
74511;DHT22;62991;50.040;18.400;2022-12-05T09:03:10;7.20;61.10
74511;DHT22;62991;50.040;18.400;2022-12-05T09:06:19;7.20;61.10
74511;DHT22;62991;50.040;18.400;2022-12-05T09:09:20;7.20;61.10
74511;DHT22;62991;50.040;18.400;2022-12-05T09:12:21;7.20;61.20
74511;DHT22;62991;50.040;18.400;2022-12-05T09:15:21;7.20;61.20
74511;DHT22;62991;50.040;18.400;2022-12-05T09:18:22;7.20;61.20
74511;DHT22;62991;50.040;18.400;2022-12-05T09:21:25;7.20;61.20
74511;DHT22;62991;50.040;18.400;2022-12-05T09:24:26;7.30;61.20
74511;DHT22;62991;50.040;18.400;2022-12-05T09:27:28;7.30;61.20
74511;DHT22;62991;50.040;18.400;2022-12-05T09:30:28;7.30;61.20
74511;DHT22;62991;50.040;18.400;2022-12-05T09:33:31;7.30;61.20
74511;DHT22;62991;50.040;18.400;2022-12-05T09:36:32;7.40;61.20
74511;DHT22;62991;50.040;18.400;2022-12-05T09:39:33;7.40;61.20
74511;DHT22;62991;50.040;18.400;2022-12-05T09:45:45;7.40;61.20
74511;DHT22;62991;50.040;18.400;2022-12-05T09:48:51;7.40;61.20
74511;DHT22;62991;50.040;18.400;2022-12-05T09:51:52;7.50;61.20
74511;DHT22;62991;50.040;18.400;2022-12-05T09:55:15;7.50;61.20
74511;DHT22;62991;50.040;18.400;2022-12-05T09:58:26;7.50;61.20
74511;DHT22;62991;50.040;18.400;2022-12-05T10:01:54;7.50;61.20
74511;DHT22;62991;50.040;18.400;2022-12-05T10:05:18;7.50;61.20
74511;DHT22;62991;50.040;18.400;2022-12-05T10:18:34;7.70;61.30
74511;DHT22;62991;50.040;18.400;2022-12-05T10:21:50;7.70;61.30
74511;DHT22;62991;50.040;18.400;2022-12-05T10:24:55;7.70;61.20
74511;DHT22;62991;50.040;18.400;2022-12-05T10:28:04;7.80;61.20
74511;DHT22;62991;50.040;18.400;2022-12-05T10:31:13;7.80;61.20
74511;DHT22;62991;50.040;18.400;2022-12-05T10:34:26;7.80;61.20
74511;DHT22;62991;50.040;18.400;2022-12-05T10:37:29;7.80;61.20
74511;DHT22;62991;50.040;18.400;2022-12-05T10:40:45;7.90;61.20
74511;DHT22;62991;50.040;18.400;2022-12-05T10:43:46;7.90;61.30
74511;DHT22;62991;50.040;18.400;2022-12-05T10:46:48;7.90;61.20
74511;DHT22;62991;50.040;18.400;2022-12-05T10:49:49;7.90;61.20
74511;DHT22;62991;50.040;18.400;2022-12-05T10:52:51;8.00;61.20
74511;DHT22;62991;50.040;18.400;2022-12-05T10:55:53;8.00;61.30
74511;DHT22;62991;50.040;18.400;2022-12-05T10:58:56;8.00;61.30
74511;DHT22;62991;50.040;18.400;2022-12-05T11:01:57;8.10;61.30
74511;DHT22;62991;50.040;18.400;2022-12-05T11:04:58;8.10;61.30
74511;DHT22;62991;50.040;18.400;2022-12-05T11:07:59;8.20;61.30
74511;DHT22;62991;50.040;18.400;2022-12-05T11:14:21;8.20;61.30
74511;DHT22;62991;50.040;18.400;2022-12-05T11:17:24;8.30;61.30
74511;DHT22;62991;50.040;18.400;2022-12-05T11:23:28;8.40;61.30
74511;DHT22;62991;50.040;18.400;2022-12-05T11:26:36;8.40;61.30
74511;DHT22;62991;50.040;18.400;2022-12-05T11:29:38;8.50;61.20
74511;DHT22;62991;50.040;18.400;2022-12-05T11:32:38;8.50;61.30
74511;DHT22;62991;50.040;18.400;2022-12-05T11:35:39;8.60;61.20
74511;DHT22;62991;50.040;18.400;2022-12-05T11:38:41;8.60;61.20
74511;DHT22;62991;50.040;18.400;2022-12-05T11:45:51;8.70;61.20
74511;DHT22;62991;50.040;18.400;2022-12-05T11:52:10;8.80;61.30
74511;DHT22;62991;50.040;18.400;2022-12-05T11:55:19;8.90;61.30
74511;DHT22;62991;50.040;18.400;2022-12-05T12:17:57;9.60;60.80
74511;DHT22;62991;50.040;18.400;2022-12-05T12:27:35;9.70;60.90
74511;DHT22;62991;50.040;18.400;2022-12-05T12:31:05;9.60;60.90
74511;DHT22;62991;50.040;18.400;2022-12-05T12:40:50;9.70;61.00
74511;DHT22;62991;50.040;18.400;2022-12-05T12:50:53;9.70;61.00
74511;DHT22;62991;50.040;18.400;2022-12-05T12:54:00;9.80;61.00
74511;DHT22;62991;50.040;18.400;2022-12-05T12:57:08;9.80;61.00
74511;DHT22;62991;50.040;18.400;2022-12-05T13:03:56;9.90;61.00
74511;DHT22;62991;50.040;18.400;2022-12-05T13:07:14;10.00;61.00
74511;DHT22;62991;50.040;18.400;2022-12-05T13:10:25;10.00;61.00
74511;DHT22;62991;50.040;18.400;2022-12-05T13:13:37;10.00;60.90
74511;DHT22;62991;50.040;18.400;2022-12-05T13:16:43;10.00;61.00
74511;DHT22;62991;50.040;18.400;2022-12-05T13:19:49;10.00;60.90
74511;DHT22;62991;50.040;18.400;2022-12-05T13:22:51;10.00;60.90
74511;DHT22;62991;50.040;18.400;2022-12-05T13:25:55;10.00;60.90
74511;DHT22;62991;50.040;18.400;2022-12-05T13:28:58;10.00;60.90
74511;DHT22;62991;50.040;18.400;2022-12-05T13:32:04;10.00;61.00
74511;DHT22;62991;50.040;18.400;2022-12-05T13:38:28;10.00;61.00
74511;DHT22;62991;50.040;18.400;2022-12-05T13:41:53;10.00;61.00
74511;DHT22;62991;50.040;18.400;2022-12-05T13:45:17;10.00;61.00
74511;DHT22;62991;50.040;18.400;2022-12-05T13:48:22;9.90;61.00
74511;DHT22;62991;50.040;18.400;2022-12-05T13:51:36;9.90;61.10
74511;DHT22;62991;50.040;18.400;2022-12-05T13:54:43;9.90;61.10
74511;DHT22;62991;50.040;18.400;2022-12-05T13:57:46;9.80;61.10
74511;DHT22;62991;50.040;18.400;2022-12-05T14:00:47;9.80;61.20
74511;DHT22;62991;50.040;18.400;2022-12-05T14:09:52;9.70;61.30
74511;DHT22;62991;50.040;18.400;2022-12-05T14:13:01;9.70;61.30
74511;DHT22;62991;50.040;18.400;2022-12-05T14:19:51;9.70;61.40
74511;DHT22;62991;50.040;18.400;2022-12-05T14:23:12;9.60;61.40
74511;DHT22;62991;50.040;18.400;2022-12-05T14:33:00;9.50;61.50
74511;DHT22;62991;50.040;18.400;2022-12-05T14:36:05;9.50;61.50
74511;DHT22;62991;50.040;18.400;2022-12-05T14:42:40;9.50;61.50
74511;DHT22;62991;50.040;18.400;2022-12-05T14:46:01;9.50;61.50
74511;DHT22;62991;50.040;18.400;2022-12-05T14:52:41;9.40;61.70
74511;DHT22;62991;50.040;18.400;2022-12-05T14:55:44;9.40;61.70
74511;DHT22;62991;50.040;18.400;2022-12-05T14:59:04;9.40;61.70
74511;DHT22;62991;50.040;18.400;2022-12-05T15:02:20;9.30;61.80
74511;DHT22;62991;50.040;18.400;2022-12-05T15:05:26;9.30;61.80
74511;DHT22;62991;50.040;18.400;2022-12-05T15:08:32;9.30;61.90
74511;DHT22;62991;50.040;18.400;2022-12-05T15:11:36;9.30;61.90
74511;DHT22;62991;50.040;18.400;2022-12-05T15:15:11;9.30;61.90
74511;DHT22;62991;50.040;18.400;2022-12-05T15:18:35;9.30;62.00
74511;DHT22;62991;50.040;18.400;2022-12-05T15:21:47;9.30;62.00
74511;DHT22;62991;50.040;18.400;2022-12-05T15:24:50;9.30;62.00
74511;DHT22;62991;50.040;18.400;2022-12-05T15:28:04;9.30;62.00
74511;DHT22;62991;50.040;18.400;2022-12-05T15:31:07;9.30;62.00
74511;DHT22;62991;50.040;18.400;2022-12-05T15:37:55;9.30;62.10
74511;DHT22;62991;50.040;18.400;2022-12-05T15:40:57;9.30;62.00
74511;DHT22;62991;50.040;18.400;2022-12-05T15:43:58;9.30;62.00
74511;DHT22;62991;50.040;18.400;2022-12-05T15:46:58;9.30;62.10
74511;DHT22;62991;50.040;18.400;2022-12-05T15:49:59;9.30;62.10
74511;DHT22;62991;50.040;18.400;2022-12-05T15:56:13;9.30;62.10
74511;DHT22;62991;50.040;18.400;2022-12-05T16:02:23;9.30;62.20
74511;DHT22;62991;50.040;18.400;2022-12-05T16:05:36;9.30;62.20
74511;DHT22;62991;50.040;18.400;2022-12-05T16:08:43;9.30;62.20
74511;DHT22;62991;50.040;18.400;2022-12-05T16:14:57;9.30;62.20
74511;DHT22;62991;50.040;18.400;2022-12-05T16:18:02;9.30;62.20
74511;DHT22;62991;50.040;18.400;2022-12-05T16:21:27;9.30;62.20
74511;DHT22;62991;50.040;18.400;2022-12-05T16:24:30;9.30;62.20
74511;DHT22;62991;50.040;18.400;2022-12-05T16:27:35;9.30;62.20
74511;DHT22;62991;50.040;18.400;2022-12-05T16:30:36;9.20;62.30
74511;DHT22;62991;50.040;18.400;2022-12-05T16:33:37;9.30;62.30
74511;DHT22;62991;50.040;18.400;2022-12-05T16:36:45;9.20;62.30
74511;DHT22;62991;50.040;18.400;2022-12-05T16:39:46;9.20;62.30
74511;DHT22;62991;50.040;18.400;2022-12-05T16:43:03;9.20;62.30
74511;DHT22;62991;50.040;18.400;2022-12-05T16:49:19;9.20;62.30
74511;DHT22;62991;50.040;18.400;2022-12-05T16:52:20;9.20;62.30
74511;DHT22;62991;50.040;18.400;2022-12-05T16:55:21;9.20;62.40
74511;DHT22;62991;50.040;18.400;2022-12-05T16:58:24;9.20;62.40
74511;DHT22;62991;50.040;18.400;2022-12-05T17:01:26;9.20;62.40
74511;DHT22;62991;50.040;18.400;2022-12-05T17:04:27;9.20;62.40
74511;DHT22;62991;50.040;18.400;2022-12-05T17:07:28;9.20;62.40
74511;DHT22;62991;50.040;18.400;2022-12-05T17:10:29;9.20;62.40
74511;DHT22;62991;50.040;18.400;2022-12-05T17:13:30;9.20;62.40
74511;DHT22;62991;50.040;18.400;2022-12-05T17:16:31;9.20;62.40
74511;DHT22;62991;50.040;18.400;2022-12-05T17:19:32;9.10;62.40
74511;DHT22;62991;50.040;18.400;2022-12-05T17:22:33;9.20;62.40
74511;DHT22;62991;50.040;18.400;2022-12-05T17:25:34;9.20;62.40
74511;DHT22;62991;50.040;18.400;2022-12-05T17:28:36;9.10;62.50
74511;DHT22;62991;50.040;18.400;2022-12-05T17:31:37;9.10;62.40
74511;DHT22;62991;50.040;18.400;2022-12-05T17:34:38;9.10;62.40
74511;DHT22;62991;50.040;18.400;2022-12-05T17:37:38;9.10;62.40
74511;DHT22;62991;50.040;18.400;2022-12-05T17:40:39;9.20;62.40
74511;DHT22;62991;50.040;18.400;2022-12-05T17:43:40;9.10;62.40
74511;DHT22;62991;50.040;18.400;2022-12-05T17:46:41;9.10;62.40
74511;DHT22;62991;50.040;18.400;2022-12-05T17:49:43;9.10;62.40
74511;DHT22;62991;50.040;18.400;2022-12-05T17:52:45;9.10;62.40
74511;DHT22;62991;50.040;18.400;2022-12-05T17:55:46;9.10;62.40
74511;DHT22;62991;50.040;18.400;2022-12-05T17:58:48;9.10;62.40
74511;DHT22;62991;50.040;18.400;2022-12-05T18:01:49;9.10;62.40
74511;DHT22;62991;50.040;18.400;2022-12-05T18:04:49;9.10;62.50
74511;DHT22;62991;50.040;18.400;2022-12-05T18:07:50;9.10;62.40
74511;DHT22;62991;50.040;18.400;2022-12-05T18:10:51;9.10;62.40
74511;DHT22;62991;50.040;18.400;2022-12-05T18:13:51;9.10;62.40
74511;DHT22;62991;50.040;18.400;2022-12-05T18:16:52;9.10;62.50
74511;DHT22;62991;50.040;18.400;2022-12-05T18:32:29;9.10;62.30
74511;DHT22;62991;50.040;18.400;2022-12-05T18:35:29;9.10;62.40
74511;DHT22;62991;50.040;18.400;2022-12-05T18:38:40;9.10;62.40
74511;DHT22;62991;50.040;18.400;2022-12-05T18:41:42;9.10;62.40
74511;DHT22;62991;50.040;18.400;2022-12-05T18:44:42;9.10;62.40
74511;DHT22;62991;50.040;18.400;2022-12-05T18:47:43;9.20;62.40
74511;DHT22;62991;50.040;18.400;2022-12-05T18:50:44;9.20;62.50
74511;DHT22;62991;50.040;18.400;2022-12-05T18:53:45;9.20;62.40
74511;DHT22;62991;50.040;18.400;2022-12-05T18:56:51;9.20;62.50
74511;DHT22;62991;50.040;18.400;2022-12-05T18:59:52;9.20;62.50
74511;DHT22;62991;50.040;18.400;2022-12-05T19:02:52;9.20;62.60
74511;DHT22;62991;50.040;18.400;2022-12-05T19:05:53;9.20;62.60
74511;DHT22;62991;50.040;18.400;2022-12-05T19:08:55;9.20;62.60
74511;DHT22;62991;50.040;18.400;2022-12-05T19:11:57;9.20;62.60
74511;DHT22;62991;50.040;18.400;2022-12-05T19:14:58;9.20;62.60
74511;DHT22;62991;50.040;18.400;2022-12-05T19:17:59;9.20;62.70
74511;DHT22;62991;50.040;18.400;2022-12-05T19:20:59;9.20;62.60
74511;DHT22;62991;50.040;18.400;2022-12-05T19:24:01;9.20;62.70
74511;DHT22;62991;50.040;18.400;2022-12-05T19:27:02;9.20;62.70
74511;DHT22;62991;50.040;18.400;2022-12-05T19:30:03;9.20;62.70
74511;DHT22;62991;50.040;18.400;2022-12-05T19:33:03;9.20;62.70
74511;DHT22;62991;50.040;18.400;2022-12-05T19:36:07;9.20;62.80
74511;DHT22;62991;50.040;18.400;2022-12-05T19:42:09;9.20;62.70
74511;DHT22;62991;50.040;18.400;2022-12-05T19:45:10;9.20;62.70
74511;DHT22;62991;50.040;18.400;2022-12-05T19:48:11;9.20;62.70
74511;DHT22;62991;50.040;18.400;2022-12-05T19:51:12;9.20;62.70
74511;DHT22;62991;50.040;18.400;2022-12-05T19:54:13;9.10;62.80
74511;DHT22;62991;50.040;18.400;2022-12-05T19:57:17;9.10;62.80
74511;DHT22;62991;50.040;18.400;2022-12-05T20:00:18;9.10;62.90
74511;DHT22;62991;50.040;18.400;2022-12-05T20:03:19;9.10;62.80
74511;DHT22;62991;50.040;18.400;2022-12-05T20:06:20;9.10;62.90
74511;DHT22;62991;50.040;18.400;2022-12-05T20:09:21;9.10;62.90
74511;DHT22;62991;50.040;18.400;2022-12-05T20:12:22;9.10;62.90
74511;DHT22;62991;50.040;18.400;2022-12-05T20:15:23;9.10;62.90
74511;DHT22;62991;50.040;18.400;2022-12-05T20:18:23;9.10;62.90
74511;DHT22;62991;50.040;18.400;2022-12-05T20:21:25;9.10;62.90
74511;DHT22;62991;50.040;18.400;2022-12-05T20:24:26;9.10;62.90
74511;DHT22;62991;50.040;18.400;2022-12-05T20:27:27;9.10;63.00
74511;DHT22;62991;50.040;18.400;2022-12-05T20:30:27;9.10;63.00
74511;DHT22;62991;50.040;18.400;2022-12-05T20:33:28;9.10;63.00
74511;DHT22;62991;50.040;18.400;2022-12-05T20:36:30;9.10;63.10
74511;DHT22;62991;50.040;18.400;2022-12-05T20:39:31;9.10;63.10
74511;DHT22;62991;50.040;18.400;2022-12-05T20:42:32;9.10;63.10
74511;DHT22;62991;50.040;18.400;2022-12-05T20:45:33;9.10;63.10
74511;DHT22;62991;50.040;18.400;2022-12-05T20:48:34;9.10;63.10
74511;DHT22;62991;50.040;18.400;2022-12-05T20:51:35;9.10;63.10
74511;DHT22;62991;50.040;18.400;2022-12-05T20:54:35;9.10;63.20
74511;DHT22;62991;50.040;18.400;2022-12-05T20:57:36;9.10;63.20
74511;DHT22;62991;50.040;18.400;2022-12-05T21:00:37;9.10;63.20
74511;DHT22;62991;50.040;18.400;2022-12-05T21:03:42;9.00;63.20
74511;DHT22;62991;50.040;18.400;2022-12-05T21:06:43;9.00;63.20
74511;DHT22;62991;50.040;18.400;2022-12-05T21:09:45;9.00;63.30
74511;DHT22;62991;50.040;18.400;2022-12-05T21:12:46;9.00;63.30
74511;DHT22;62991;50.040;18.400;2022-12-05T21:15:46;9.00;63.30
74511;DHT22;62991;50.040;18.400;2022-12-05T21:18:48;9.00;63.40
74511;DHT22;62991;50.040;18.400;2022-12-05T21:21:49;8.90;63.40
74511;DHT22;62991;50.040;18.400;2022-12-05T21:24:53;8.90;63.50
74511;DHT22;62991;50.040;18.400;2022-12-05T21:27:53;8.90;63.50
74511;DHT22;62991;50.040;18.400;2022-12-05T21:30:54;8.90;63.50
74511;DHT22;62991;50.040;18.400;2022-12-05T21:33:57;8.90;63.50
74511;DHT22;62991;50.040;18.400;2022-12-05T21:36:58;8.90;63.50
74511;DHT22;62991;50.040;18.400;2022-12-05T21:40:00;8.90;63.60
74511;DHT22;62991;50.040;18.400;2022-12-05T21:43:01;8.90;63.60
74511;DHT22;62991;50.040;18.400;2022-12-05T21:46:01;8.90;63.60
74511;DHT22;62991;50.040;18.400;2022-12-05T21:49:02;8.90;63.60
74511;DHT22;62991;50.040;18.400;2022-12-05T21:52:03;8.90;63.60
74511;DHT22;62991;50.040;18.400;2022-12-05T21:55:05;8.90;63.60
74511;DHT22;62991;50.040;18.400;2022-12-05T21:58:06;8.90;63.70
74511;DHT22;62991;50.040;18.400;2022-12-05T22:01:07;8.90;63.80
74511;DHT22;62991;50.040;18.400;2022-12-05T22:04:08;8.90;63.70
74511;DHT22;62991;50.040;18.400;2022-12-05T22:07:08;8.90;63.80
74511;DHT22;62991;50.040;18.400;2022-12-05T22:10:09;8.90;63.80
74511;DHT22;62991;50.040;18.400;2022-12-05T22:13:10;9.00;63.80